Batajnica Air Base

LYBT · Vojvodina, Serbia

罗盘
风向 的 风向 340° Batajnica Air Base 12R/30L
风: 19 kt, 5 beaufort

16 kt

11 kt
改变
0 ft 1.000 2.000 3.000 4.000 5.000
Cloud Cloud
FEW 2.700
Cloud Cloud Cloud Cloud
SCT 4.000
METAR LYBT 161630Z 34019KT 9999 FEW027 SCT040 11/05 Q1005 NOSIG

METAR Batajnica Air Base - LYBT/BJY

Batajnica Air Base是,Serbia中的中型机场。 该机场位于纬度44,93530和经度20,25750。 该机场有2条跑道: 12R/30L 和 12L/30R. 本场的ICAO机场代码为LYBT。 该机场的IATA代码为BJY。 机场在Beograd FIR中。

该航空气象观测是针对Batajnica Air Base在2024年4月16日 18:30, 当地时间进行的。

机场观察

风向为340°,速度为19 kt。

可见度为10 km 或者更多。

有几云在2.700 ft的高度 和 疏云,零星散落的云朵在4.000 ft的高度。 没有观察到天花板。

温度和风寒是11 °C。 露点为5 °C,相对湿度为67%。 海平面上的气压为1005 hPa (QNH)。

白天

今天,太阳从05:51升起,在19:25降落。 这适用于Batajnica Air Base,世界夏令时可能有所不同。 当地时间与世界标准时间之间的时差为+2 小时。 夏令时目前正在进行中。

公司介绍

我们没有关于这个机场的公司信息。

体会

到Vliegles.nl去找飞行课程,跳伞和其他飞行体验。 浏览页面,了解Batajnica Air Base附近所有可用的活动。 你也可以使用搜索功能来寻找你所在地附近的特定飞行课程、跳伞或其他飞行体验。

跑道

Id 标题 侧风 逆风 侧风 %
12R/30L 125°-305° 11 kt 16 kt 57 %
12L/30R 125°-305° 11 kt 16 kt 57 %

逆风成分最大的方向会被突出显示,并用于横风计算。 这并不一定意味着这个方向在使用。

乌云

2.700 ft FEW 几云
4.000 ft SCT 疏云,零星散落的云朵

温度 & 天气

温度 11 °C
露点 5 °C
相对湿度 67%
Kp-index 3 (0-9)

白天

日出
05:51
中午
12:38
日落
19:25 (23m)

小工具

你想在你的网站上有一个关于Batajnica Air Base的当前航空天气(METAR)的小部件吗?

显示HTML代码
报告变更